Alaska — SYDS — position and weather

sailwx.info

Track history (hours):
 
Tides and Currents Weather Stations Pressure Air Temp Water Temp Dewpoint Dewpoint Depression Visibility Wind Speed Wind Dir Waves Ship Positions

Alaska

Last reported at 2015-Jun-30 10:33 UTC. Time now 2015-Jun-30 14:32 UTC.
Position N 25°54' W 016°07'.

Length 274 m; draft 14.8 m.

Type: Tanker. MMSI: 240472000.

Date/timePositionNaut miles runAvg speedWind from/ knotsBaromVisibWave heightAir tempDewpointWater temp
2015-Jun-30 10:33N 25°54' W 016°07'4013.3
2015-Jun-30 07:33N 25°20' W 016°31'1513.0
2015-Jun-30 06:26N 25°08' W 016°40'2512.9
2015-Jun-30 04:29N 24°46' W 016°52'1613.1
2015-Jun-30 03:18N 24°32' W 016°59'1213.3
2015-Jun-30 02:22N 24°20' W 017°05'1113.1
2015-Jun-30 01:33N 24°11' W 017°10'4613.2
2015-Jun-29 22:04N 23°29' W 017°32'13612.8
2015-Jun-29 11:28N 21°18' W 018°10'  
Track history (hours):
 
Tides and Currents Weather Stations Pressure Air Temp Water Temp Dewpoint Dewpoint Depression Visibility Wind Speed Wind Dir Waves Ship Positions

Alaska

Last reported at 2015-Jun-30 10:33 UTC. Time now 2015-Jun-30 14:32 UTC.
Position N 25°54' W 016°07'.

Length 274 m; draft 14.8 m.

Type: Tanker. MMSI: 240472000.

Date/timePositionNaut miles runAvg speedWind from/ knotsBaromVisibWave heightAir tempDewpointWater temp
2015-Jun-30 10:33N 25°54' W 016°07'4013.3
2015-Jun-30 07:33N 25°20' W 016°31'1513.0
2015-Jun-30 06:26N 25°08' W 016°40'2512.9
2015-Jun-30 04:29N 24°46' W 016°52'1613.1
2015-Jun-30 03:18N 24°32' W 016°59'1213.3
2015-Jun-30 02:22N 24°20' W 017°05'1113.1
2015-Jun-30 01:33N 24°11' W 017°10'4613.2
2015-Jun-29 22:04N 23°29' W 017°32'13612.8
2015-Jun-29 11:28N 21°18' W 018°10'  

Dump ship's entire track history